createdAt,value
2018-09-29T00:00:29.576Z,1028.37
2018-09-29T00:01:29.601Z,1028.37
2018-09-29T00:02:29.625Z,1028.35
2018-09-29T00:03:29.648Z,1028.38
2018-09-29T00:04:29.672Z,1028.36
2018-09-29T00:05:29.699Z,1028.40
2018-09-29T00:06:29.721Z,1028.43
2018-09-29T00:07:29.742Z,1028.45
2018-09-29T00:08:29.818Z,1028.46
2018-09-29T00:09:29.791Z,1028.46
2018-09-29T00:10:29.815Z,1028.46
2018-09-29T00:11:29.840Z,1028.49
2018-09-29T00:12:29.863Z,1028.44
2018-09-29T00:13:29.889Z,1028.45
2018-09-29T00:14:29.915Z,1028.47
2018-09-29T00:15:29.934Z,1028.50
2018-09-29T00:16:29.977Z,1028.48
2018-09-29T00:17:29.982Z,1028.44
2018-09-29T00:18:30.005Z,1028.41
2018-09-29T00:19:30.030Z,1028.40
2018-09-29T00:20:30.052Z,1028.34
2018-09-29T00:21:30.077Z,1028.34
2018-09-29T00:22:30.100Z,1028.32
2018-09-29T00:23:30.125Z,1028.32
2018-09-29T00:24:30.147Z,1028.32
2018-09-29T00:25:30.176Z,1028.30
2018-09-29T00:26:30.195Z,1028.32
2018-09-29T00:27:30.219Z,1028.34
2018-09-29T00:28:30.244Z,1028.32
2018-09-29T00:29:30.267Z,1028.32
2018-09-29T00:30:30.290Z,1028.33
2018-09-29T00:31:30.315Z,1028.32
2018-09-29T00:32:30.338Z,1028.34
2018-09-29T00:33:30.360Z,1028.33
2018-09-29T00:34:30.390Z,1028.33
2018-09-29T00:35:30.409Z,1028.32
2018-09-29T00:36:30.430Z,1028.35
2018-09-29T00:37:30.455Z,1028.31
2018-09-29T00:38:30.481Z,1028.31
2018-09-29T00:39:30.505Z,1028.30
2018-09-29T00:40:30.528Z,1028.26
2018-09-29T00:41:30.553Z,1028.29
2018-09-29T00:42:30.577Z,1028.25
2018-09-29T00:43:30.609Z,1028.23
2018-09-29T00:44:30.625Z,1028.20
2018-09-29T00:45:30.649Z,1028.21
2018-09-29T00:46:30.671Z,1028.21
2018-09-29T00:47:30.697Z,1028.27
2018-09-29T00:48:30.718Z,1028.25
2018-09-29T00:49:30.742Z,1028.25
2018-09-29T00:50:30.766Z,1028.25
2018-09-29T00:51:30.792Z,1028.26
2018-09-29T00:52:30.813Z,1028.26
2018-09-29T00:53:30.837Z,1028.31
2018-09-29T00:54:30.862Z,1028.30
2018-09-29T00:55:30.887Z,1028.29
2018-09-29T00:56:30.909Z,1028.29
2018-09-29T00:57:30.934Z,1028.27
2018-09-29T00:58:30.956Z,1028.26
2018-09-29T00:59:30.981Z,1028.30
2018-09-29T01:00:31.003Z,1028.29
2018-09-29T01:01:31.028Z,1028.29
2018-09-29T01:02:31.055Z,1028.28
2018-09-29T01:03:31.078Z,1028.32
2018-09-29T01:04:31.098Z,1028.35
2018-09-29T01:05:31.121Z,1028.37
2018-09-29T01:06:31.149Z,1028.39
2018-09-29T01:07:31.171Z,1028.35
2018-09-29T01:08:31.196Z,1028.38
2018-09-29T01:09:31.218Z,1028.41
2018-09-29T01:10:31.244Z,1028.44
2018-09-29T01:11:31.270Z,1028.43
2018-09-29T01:12:31.291Z,1028.42
2018-09-29T01:13:31.311Z,1028.42
2018-09-29T01:14:31.337Z,1028.44
2018-09-29T01:15:31.361Z,1028.38
2018-09-29T01:16:31.387Z,1028.43
2018-09-29T01:17:31.407Z,1028.43
2018-09-29T01:18:31.434Z,1028.42
2018-09-29T01:19:31.456Z,1028.46
2018-09-29T01:20:31.482Z,1028.46
2018-09-29T01:21:31.502Z,1028.45
2018-09-29T01:22:31.528Z,1028.45
2018-09-29T01:23:31.552Z,1028.41
2018-09-29T01:24:31.574Z,1028.36
2018-09-29T01:25:31.600Z,1028.39
2018-09-29T01:26:31.621Z,1028.38
2018-09-29T01:27:31.646Z,1028.37
2018-09-29T01:28:31.669Z,1028.35
2018-09-29T01:29:31.695Z,1028.35
2018-09-29T01:30:31.717Z,1028.36
2018-09-29T01:31:31.742Z,1028.36
2018-09-29T01:32:31.766Z,1028.38
2018-09-29T01:33:31.790Z,1028.38
2018-09-29T01:34:31.817Z,1028.36
2018-09-29T01:35:31.839Z,1028.35
2018-09-29T01:36:31.861Z,1028.30
2018-09-29T01:37:31.883Z,1028.29
2018-09-29T01:38:31.909Z,1028.26
2018-09-29T01:39:31.931Z,1028.23
2018-09-29T01:40:31.954Z,1028.24
2018-09-29T01:41:31.979Z,1028.25
2018-09-29T01:42:32.003Z,1028.25
2018-09-29T01:43:32.030Z,1028.25
2018-09-29T01:44:32.049Z,1028.26
2018-09-29T01:45:32.074Z,1028.27
2018-09-29T01:46:32.097Z,1028.29
2018-09-29T01:47:32.125Z,1028.30
2018-09-29T01:48:32.144Z,1028.29
2018-09-29T01:49:32.168Z,1028.30
2018-09-29T01:50:32.195Z,1028.32
2018-09-29T01:51:32.217Z,1028.30
2018-09-29T01:52:32.238Z,1028.34
2018-09-29T01:53:32.257Z,1028.28
2018-09-29T01:54:32.287Z,1028.27
2018-09-29T01:55:32.315Z,1028.27
2018-09-29T01:56:32.334Z,1028.23
2018-09-29T01:57:32.358Z,1028.24
2018-09-29T01:58:32.385Z,1028.23
2018-09-29T01:59:32.407Z,1028.22
2018-09-29T02:00:32.432Z,1028.18
2018-09-29T02:01:32.457Z,1028.19
2018-09-29T02:02:32.477Z,1028.23
2018-09-29T02:03:32.503Z,1028.23
2018-09-29T02:04:32.526Z,1028.22
2018-09-29T02:05:32.551Z,1028.22
2018-09-29T02:06:32.572Z,1028.22
2018-09-29T02:07:32.601Z,1028.19
2018-09-29T02:08:32.619Z,1028.18
2018-09-29T02:09:32.646Z,1028.16
2018-09-29T02:10:32.672Z,1028.14
2018-09-29T02:11:32.693Z,1028.15
2018-09-29T02:12:32.715Z,1028.15
2018-09-29T02:13:32.740Z,1028.17
2018-09-29T02:14:32.763Z,1028.17
2018-09-29T02:15:32.786Z,1028.19
2018-09-29T02:16:32.814Z,1028.13
2018-09-29T02:17:32.833Z,1028.09
2018-09-29T02:18:32.857Z,1028.12
2018-09-29T02:19:32.882Z,1028.10
2018-09-29T02:20:32.907Z,1028.11
2018-09-29T02:21:32.964Z,1028.15
2018-09-29T02:22:32.953Z,1028.16
2018-09-29T02:23:32.977Z,1028.14
2018-09-29T02:24:33.004Z,1028.16
2018-09-29T02:25:33.024Z,1028.16
2018-09-29T02:26:33.050Z,1028.15
2018-09-29T02:27:33.071Z,1028.15
2018-09-29T02:28:33.103Z,1028.12
2018-09-29T02:29:33.119Z,1028.11
2018-09-29T02:30:33.142Z,1028.09
2018-09-29T02:31:33.166Z,1028.08
2018-09-29T02:32:33.189Z,1028.06
2018-09-29T02:33:33.214Z,1028.04
2018-09-29T02:34:33.236Z,1028.03
2018-09-29T02:35:33.261Z,1028.06
2018-09-29T02:36:33.284Z,1028.07
2018-09-29T02:37:33.308Z,1028.10
2018-09-29T02:38:33.334Z,1028.08
2018-09-29T02:39:33.357Z,1028.03
2018-09-29T02:40:33.377Z,1028.02
2018-09-29T02:41:33.402Z,1027.97
2018-09-29T02:42:33.434Z,1027.99
2018-09-29T02:43:33.453Z,1028.01
2018-09-29T02:44:33.474Z,1027.98
2018-09-29T02:45:33.500Z,1027.95
2018-09-29T02:46:33.524Z,1027.93
2018-09-29T02:47:33.546Z,1027.92
2018-09-29T02:48:33.573Z,1027.90
2018-09-29T02:49:33.594Z,1027.93
2018-09-29T02:50:33.616Z,1027.92
2018-09-29T02:51:33.643Z,1027.95
2018-09-29T02:52:33.669Z,1027.94
2018-09-29T02:53:33.687Z,1027.93
2018-09-29T02:54:33.714Z,1027.93
2018-09-29T02:55:33.735Z,1027.94
2018-09-29T02:56:33.760Z,1027.96
2018-09-29T02:57:33.782Z,1027.99
2018-09-29T02:58:33.808Z,1028.03
2018-09-29T02:59:33.832Z,1028.02
2018-09-29T03:00:33.862Z,1028.09
2018-09-29T03:01:33.878Z,1028.14
2018-09-29T03:02:33.902Z,1028.14
2018-09-29T03:03:33.930Z,1028.17
2018-09-29T03:04:33.951Z,1028.17
2018-09-29T03:05:33.972Z,1028.17
2018-09-29T03:06:33.998Z,1028.15
2018-09-29T03:07:34.020Z,1028.15
2018-09-29T03:08:34.045Z,1028.14
2018-09-29T03:09:34.067Z,1028.15
2018-09-29T03:10:34.092Z,1028.18
2018-09-29T03:11:34.116Z,1028.16
2018-09-29T03:12:34.141Z,1028.16
2018-09-29T03:13:34.162Z,1028.15
2018-09-29T03:14:34.186Z,1028.15
2018-09-29T03:15:34.211Z,1028.23
2018-09-29T03:16:34.232Z,1028.20
2018-09-29T03:17:34.258Z,1028.22
2018-09-29T03:18:34.285Z,1028.23
2018-09-29T03:19:34.306Z,1028.24
2018-09-29T03:20:34.328Z,1028.24
2018-09-29T03:21:34.354Z,1028.20
2018-09-29T03:22:34.375Z,1028.21
2018-09-29T03:23:34.405Z,1028.26
2018-09-29T03:24:34.425Z,1028.23
2018-09-29T03:25:34.447Z,1028.21
2018-09-29T03:26:34.473Z,1028.22
2018-09-29T03:27:34.495Z,1028.21
2018-09-29T03:28:34.523Z,1028.21
2018-09-29T03:29:34.543Z,1028.24
2018-09-29T03:30:34.566Z,1028.19
2018-09-29T03:31:34.604Z,1028.21
2018-09-29T03:32:34.613Z,1028.21
2018-09-29T03:33:34.637Z,1028.23
2018-09-29T03:34:34.660Z,1028.21
2018-09-29T03:35:34.686Z,1028.22
2018-09-29T03:36:34.708Z,1028.24
2018-09-29T03:37:34.733Z,1028.23
2018-09-29T03:38:34.756Z,1028.25
2018-09-29T03:39:34.779Z,1028.25
2018-09-29T03:40:34.802Z,1028.26
2018-09-29T03:41:34.826Z,1028.23
2018-09-29T03:42:34.853Z,1028.25
2018-09-29T03:43:34.874Z,1028.23
2018-09-29T03:44:34.897Z,1028.21
2018-09-29T03:45:34.921Z,1028.17
2018-09-29T03:46:34.944Z,1028.19
2018-09-29T03:47:34.974Z,1028.17
2018-09-29T03:48:34.995Z,1028.12
2018-09-29T03:49:35.017Z,1028.15
2018-09-29T03:50:35.046Z,1028.08
2018-09-29T03:51:35.064Z,1028.04
2018-09-29T03:52:35.086Z,1028.05
2018-09-29T03:53:35.134Z,1027.99
2018-09-29T03:54:35.139Z,1027.98
2018-09-29T03:55:35.162Z,1027.95
2018-09-29T03:56:35.181Z,1027.93
2018-09-29T03:57:35.208Z,1027.91
2018-09-29T03:58:35.233Z,1027.89
2018-09-29T03:59:35.255Z,1027.85
2018-09-29T04:00:35.283Z,1027.84
2018-09-29T04:01:35.304Z,1027.86
2018-09-29T04:02:35.325Z,1027.84
2018-09-29T04:03:35.351Z,1027.89
2018-09-29T04:04:35.371Z,1027.88
2018-09-29T04:05:35.397Z,1027.91
2018-09-29T04:06:35.424Z,1027.90
2018-09-29T04:07:35.444Z,1027.87
2018-09-29T04:08:35.467Z,1027.85
2018-09-29T04:09:35.493Z,1027.85
2018-09-29T04:10:35.515Z,1027.87
2018-09-29T04:11:35.539Z,1027.85
2018-09-29T04:12:35.562Z,1027.83
2018-09-29T04:13:35.586Z,1027.84
2018-09-29T04:14:35.610Z,1027.83
2018-09-29T04:15:35.646Z,1027.85
2018-09-29T04:16:35.659Z,1027.87
2018-09-29T04:17:35.681Z,1027.86
2018-09-29T04:18:35.708Z,1027.86
2018-09-29T04:19:35.776Z,1027.91
2018-09-29T04:20:35.752Z,1027.89
2018-09-29T04:21:35.776Z,1027.87
2018-09-29T04:22:35.800Z,1027.89
2018-09-29T04:23:35.824Z,1027.89
2018-09-29T04:24:35.849Z,1027.93
2018-09-29T04:25:35.873Z,1027.93
2018-09-29T04:26:35.895Z,1027.94
2018-09-29T04:27:35.920Z,1027.90
2018-09-29T04:28:35.945Z,1027.92
2018-09-29T04:29:35.967Z,1027.92
2018-09-29T04:30:35.989Z,1027.96
2018-09-29T04:31:36.015Z,1027.99
2018-09-29T04:32:36.038Z,1028.01
2018-09-29T04:33:36.061Z,1028.03
2018-09-29T04:34:36.085Z,1028.09
2018-09-29T04:35:36.109Z,1028.10
2018-09-29T04:36:36.132Z,1028.12
2018-09-29T04:37:36.156Z,1028.11
2018-09-29T04:38:36.181Z,1028.16
2018-09-29T04:39:36.204Z,1028.15
2018-09-29T04:40:36.230Z,1028.14
2018-09-29T04:41:36.251Z,1028.17
2018-09-29T04:42:36.274Z,1028.21
2018-09-29T04:43:36.301Z,1028.21
2018-09-29T04:44:36.321Z,1028.21
2018-09-29T04:45:36.347Z,1028.24
2018-09-29T04:46:36.370Z,1028.17
2018-09-29T04:47:36.393Z,1028.18
2018-09-29T04:48:36.416Z,1028.21
2018-09-29T04:49:36.442Z,1028.19
2018-09-29T04:50:36.464Z,1028.24
2018-09-29T04:51:36.490Z,1028.22
2018-09-29T04:52:36.513Z,1028.17
2018-09-29T04:53:36.538Z,1028.16
2018-09-29T04:54:36.561Z,1028.19
2018-09-29T04:55:36.580Z,1028.20
2018-09-29T04:56:36.607Z,1028.20
2018-09-29T04:57:36.631Z,1028.21
2018-09-29T04:58:36.657Z,1028.26
2018-09-29T04:59:36.681Z,1028.22
2018-09-29T05:00:36.702Z,1028.22
2018-09-29T05:01:36.727Z,1028.20
2018-09-29T05:02:36.750Z,1028.20
2018-09-29T05:03:36.776Z,1028.20
2018-09-29T05:04:36.801Z,1028.23
2018-09-29T05:05:36.822Z,1028.28
2018-09-29T05:06:36.897Z,1028.27
2018-09-29T05:07:36.870Z,1028.27
2018-09-29T05:08:36.894Z,1028.27
2018-09-29T05:09:36.916Z,1028.24
2018-09-29T05:10:36.944Z,1028.25
2018-09-29T05:11:36.963Z,1028.26
2018-09-29T05:12:36.987Z,1028.31
2018-09-29T05:13:37.013Z,1028.23
2018-09-29T05:14:37.035Z,1028.22
2018-09-29T05:15:37.063Z,1028.19
2018-09-29T05:16:37.079Z,1028.18
2018-09-29T05:17:37.107Z,1028.16
2018-09-29T05:18:37.130Z,1028.17
2018-09-29T05:19:37.166Z,1028.18
2018-09-29T05:20:37.176Z,1028.15
2018-09-29T05:21:37.203Z,1028.12
2018-09-29T05:22:37.225Z,1028.09
2018-09-29T05:23:37.252Z,1028.09
2018-09-29T05:24:37.274Z,1028.08
2018-09-29T05:25:37.296Z,1028.06
2018-09-29T05:26:37.321Z,1028.08
2018-09-29T05:27:37.345Z,1028.09
2018-09-29T05:28:37.367Z,1028.05
2018-09-29T05:29:37.391Z,1028.05
2018-09-29T05:30:37.416Z,1027.98
2018-09-29T05:31:37.440Z,1028.02
2018-09-29T05:32:37.463Z,1028.00
2018-09-29T05:33:37.487Z,1028.03
2018-09-29T05:34:37.512Z,1028.00
2018-09-29T05:35:37.537Z,1028.08
2018-09-29T05:36:37.560Z,1028.07
2018-09-29T05:37:37.586Z,1028.12
2018-09-29T05:38:37.608Z,1028.08
2018-09-29T05:39:37.629Z,1028.10
2018-09-29T05:40:37.654Z,1028.10
2018-09-29T05:41:37.682Z,1028.10
2018-09-29T05:42:37.705Z,1028.13
2018-09-29T05:43:37.730Z,1028.11
2018-09-29T05:44:37.751Z,1028.11
2018-09-29T05:45:37.775Z,1028.09
2018-09-29T05:46:37.799Z,1028.08
2018-09-29T05:47:37.828Z,1028.09
2018-09-29T05:48:37.845Z,1028.08
2018-09-29T05:49:37.877Z,1028.09
2018-09-29T05:50:37.905Z,1028.08
2018-09-29T05:51:37.920Z,1028.07
2018-09-29T05:52:37.946Z,1028.10
2018-09-29T05:53:37.966Z,1028.11
2018-09-29T05:54:37.989Z,1028.12
2018-09-29T05:55:38.016Z,1028.10
2018-09-29T05:56:38.036Z,1028.14
2018-09-29T05:57:38.064Z,1028.14
2018-09-29T05:58:38.107Z,1028.15
2018-09-29T05:59:38.111Z,1028.12
2018-09-29T06:00:38.169Z,1028.15
2018-09-29T06:01:38.162Z,1028.12
2018-09-29T06:02:38.181Z,1028.15
2018-09-29T06:03:38.207Z,1028.17
2018-09-29T06:04:38.229Z,1028.22
2018-09-29T06:05:38.405Z,1028.23
2018-09-29T06:06:38.277Z,1028.22
2018-09-29T06:07:38.303Z,1028.23
2018-09-29T06:08:38.325Z,1028.18
2018-09-29T06:09:38.351Z,1028.18
2018-09-29T06:10:38.375Z,1028.18
2018-09-29T06:11:38.399Z,1028.16
2018-09-29T06:12:38.426Z,1028.25
2018-09-29T06:13:38.446Z,1028.20
2018-09-29T06:14:38.472Z,1028.17
2018-09-29T06:15:38.493Z,1028.13
2018-09-29T06:16:38.519Z,1028.15
2018-09-29T06:17:38.541Z,1028.14
2018-09-29T06:18:38.566Z,1028.07
2018-09-29T06:19:38.590Z,1028.08
2018-09-29T06:20:38.615Z,1028.06
2018-09-29T06:21:38.641Z,1028.10
2018-09-29T06:22:38.665Z,1028.08
2018-09-29T06:23:38.688Z,1028.09
2018-09-29T06:24:38.712Z,1028.07
2018-09-29T06:25:38.739Z,1028.08
2018-09-29T06:26:38.759Z,1028.15
2018-09-29T06:27:38.787Z,1028.11
2018-09-29T06:28:38.808Z,1028.09
2018-09-29T06:29:38.834Z,1028.09
2018-09-29T06:30:38.859Z,1028.10
2018-09-29T06:31:38.884Z,1028.09
2018-09-29T06:32:38.908Z,1028.11
2018-09-29T06:33:38.934Z,1028.12
2018-09-29T06:34:38.958Z,1028.10
2018-09-29T06:35:38.985Z,1028.11
2018-09-29T06:36:39.057Z,1028.08
2018-09-29T06:37:39.034Z,1028.12
2018-09-29T06:38:39.061Z,1028.10
2018-09-29T06:39:39.086Z,1028.12
2018-09-29T06:40:39.173Z,1028.10
2018-09-29T06:41:39.136Z,1028.12
2018-09-29T06:42:39.162Z,1028.14
2018-09-29T06:43:39.190Z,1028.16
2018-09-29T06:44:39.212Z,1028.18
2018-09-29T06:45:39.238Z,1028.18
2018-09-29T06:46:39.264Z,1028.15
2018-09-29T06:47:39.339Z,1028.13
2018-09-29T06:48:39.315Z,1028.08
2018-09-29T06:49:39.347Z,1028.05
2018-09-29T06:50:39.379Z,1028.08
2018-09-29T06:51:39.397Z,1028.10
2018-09-29T06:52:39.422Z,1028.11
2018-09-29T06:53:39.446Z,1028.12
2018-09-29T06:54:39.548Z,1028.15
2018-09-29T06:55:39.498Z,1028.14
2018-09-29T06:56:39.525Z,1028.16
2018-09-29T06:57:39.550Z,1028.16
2018-09-29T06:58:39.582Z,1028.16
2018-09-29T06:59:39.607Z,1028.11
2018-09-29T07:00:39.631Z,1028.11
2018-09-29T07:01:39.654Z,1028.07
2018-09-29T07:02:39.683Z,1028.06
2018-09-29T07:03:39.710Z,1028.02
2018-09-29T07:04:39.735Z,1028.08
2018-09-29T07:05:39.761Z,1028.09
2018-09-29T07:06:39.794Z,1028.06
2018-09-29T07:07:39.816Z,1028.06
2018-09-29T07:08:39.842Z,1028.07
2018-09-29T07:09:39.866Z,1028.03
2018-09-29T07:10:39.891Z,1028.05
2018-09-29T07:11:39.918Z,1028.07
2018-09-29T07:12:39.944Z,1028.06
2018-09-29T07:13:39.974Z,1028.07
2018-09-29T07:14:39.997Z,1028.11
2018-09-29T07:15:40.024Z,1028.08
2018-09-29T07:16:40.049Z,1028.11
2018-09-29T07:17:40.079Z,1028.12
2018-09-29T07:18:40.103Z,1028.12
2018-09-29T07:19:40.126Z,1028.17
2018-09-29T07:20:40.152Z,1028.14
2018-09-29T07:21:40.292Z,1028.13
2018-09-29T07:22:40.206Z,1028.15
2018-09-29T07:23:40.231Z,1028.16
2018-09-29T07:24:40.256Z,1028.14
2018-09-29T07:25:40.283Z,1028.11
2018-09-29T07:26:40.318Z,1028.16
2018-09-29T07:27:40.333Z,1028.14
2018-09-29T07:28:40.360Z,1028.21
2018-09-29T07:29:40.386Z,1028.16
2018-09-29T07:30:40.410Z,1028.20
2018-09-29T07:31:40.440Z,1028.22
2018-09-29T07:32:40.461Z,1028.19
2018-09-29T07:33:40.486Z,1028.23
2018-09-29T07:34:40.513Z,1028.22
2018-09-29T07:35:40.540Z,1028.22
2018-09-29T07:36:40.566Z,1028.22
2018-09-29T07:37:40.589Z,1028.19
2018-09-29T07:38:40.613Z,1028.20
2018-09-29T07:39:40.642Z,1028.20
2018-09-29T07:40:40.687Z,1028.25
2018-09-29T07:41:40.690Z,1028.23
2018-09-29T07:42:40.716Z,1028.25
2018-09-29T07:43:40.745Z,1028.29
2018-09-29T07:44:40.768Z,1028.30
2018-09-29T07:45:40.795Z,1028.33
2018-09-29T07:46:40.819Z,1028.38
2018-09-29T07:47:40.845Z,1028.38
2018-09-29T07:48:40.869Z,1028.38
2018-09-29T07:49:40.893Z,1028.40
2018-09-29T07:50:40.919Z,1028.37
2018-09-29T07:51:40.945Z,1028.38
2018-09-29T07:52:40.969Z,1028.39
2018-09-29T07:53:40.992Z,1028.40
2018-09-29T07:54:41.025Z,1028.47
2018-09-29T07:55:41.045Z,1028.42
2018-09-29T07:56:41.069Z,1028.41
2018-09-29T07:57:41.092Z,1028.41
2018-09-29T07:58:41.120Z,1028.44
2018-09-29T07:59:41.146Z,1028.46
2018-09-29T08:00:41.171Z,1028.45
2018-09-29T08:01:41.198Z,1028.47
2018-09-29T08:02:41.220Z,1028.51
2018-09-29T08:03:41.246Z,1028.50
2018-09-29T08:04:41.270Z,1028.48
2018-09-29T08:05:41.296Z,1028.51
2018-09-29T08:06:41.321Z,1028.50
2018-09-29T08:07:41.349Z,1028.46
2018-09-29T08:08:41.373Z,1028.54
2018-09-29T08:09:41.396Z,1028.52
2018-09-29T08:10:41.423Z,1028.52
2018-09-29T08:11:41.447Z,1028.55
2018-09-29T08:12:41.472Z,1028.55
2018-09-29T08:13:41.503Z,1028.54
2018-09-29T08:14:41.524Z,1028.53
2018-09-29T08:15:41.548Z,1028.51
2018-09-29T08:16:41.572Z,1028.50
2018-09-29T08:17:41.596Z,1028.50
2018-09-29T08:18:41.624Z,1028.49
2018-09-29T08:19:41.654Z,1028.53
2018-09-29T08:20:41.673Z,1028.53
2018-09-29T08:21:41.698Z,1028.49
2018-09-29T08:22:41.722Z,1028.51
2018-09-29T08:23:41.747Z,1028.52
2018-09-29T08:24:41.773Z,1028.51
2018-09-29T08:25:41.798Z,1028.50
2018-09-29T08:26:41.823Z,1028.55
2018-09-29T08:27:41.849Z,1028.53
2018-09-29T08:28:41.876Z,1028.48
2018-09-29T08:29:41.899Z,1028.47
2018-09-29T08:30:41.925Z,1028.46
2018-09-29T08:31:41.951Z,1028.47
2018-09-29T08:32:41.976Z,1028.44
2018-09-29T08:33:42.002Z,1028.53
2018-09-29T08:34:42.025Z,1028.50
2018-09-29T08:35:42.055Z,1028.50
2018-09-29T08:36:42.074Z,1028.53
2018-09-29T08:37:42.124Z,1028.55
2018-09-29T08:38:42.126Z,1028.54
2018-09-29T08:39:42.155Z,1028.51
2018-09-29T08:40:42.175Z,1028.51
2018-09-29T08:41:42.202Z,1028.52
2018-09-29T08:42:42.226Z,1028.47
2018-09-29T08:43:42.255Z,1028.49
2018-09-29T08:44:42.277Z,1028.53
2018-09-29T08:45:42.301Z,1028.51
2018-09-29T08:46:42.371Z,1028.50
2018-09-29T08:47:42.354Z,1028.49
2018-09-29T08:48:42.381Z,1028.49
2018-09-29T08:49:42.405Z,1028.53
2018-09-29T08:50:42.429Z,1028.54
2018-09-29T08:51:42.453Z,1028.53
2018-09-29T08:52:42.478Z,1028.51
2018-09-29T08:53:42.543Z,1028.49
2018-09-29T08:54:42.529Z,1028.46
2018-09-29T08:55:42.555Z,1028.49
2018-09-29T08:56:42.578Z,1028.50
2018-09-29T08:57:42.604Z,1028.48
2018-09-29T08:58:42.631Z,1028.53
2018-09-29T08:59:42.657Z,1028.53
2018-09-29T09:00:42.681Z,1028.51
2018-09-29T09:01:42.705Z,1028.51
2018-09-29T09:02:42.731Z,1028.49
2018-09-29T09:03:42.757Z,1028.53
2018-09-29T09:04:42.784Z,1028.51
2018-09-29T09:05:42.806Z,1028.51
2018-09-29T09:06:42.831Z,1028.48
2018-09-29T09:07:42.856Z,1028.47
2018-09-29T09:08:42.879Z,1028.49
2018-09-29T09:09:42.906Z,1028.49
2018-09-29T09:10:42.935Z,1028.50
2018-09-29T09:11:42.958Z,1028.46
2018-09-29T09:12:42.986Z,1028.50
2018-09-29T09:13:43.007Z,1028.48
2018-09-29T09:14:43.033Z,1028.48
2018-09-29T09:15:43.058Z,1028.47
2018-09-29T09:16:43.084Z,1028.46
2018-09-29T09:17:43.107Z,1028.45
2018-09-29T09:18:43.135Z,1028.43
2018-09-29T09:19:43.159Z,1028.42
2018-09-29T09:20:43.186Z,1028.41
2018-09-29T09:21:43.208Z,1028.38
2018-09-29T09:22:43.284Z,1028.37
2018-09-29T09:23:43.295Z,1028.36
2018-09-29T09:24:43.284Z,1028.33
2018-09-29T09:25:43.306Z,1028.32
2018-09-29T09:26:43.336Z,1028.36
2018-09-29T09:27:43.361Z,1028.35
2018-09-29T09:28:43.394Z,1028.35
2018-09-29T09:29:43.424Z,1028.32
2018-09-29T09:30:43.436Z,1028.33
2018-09-29T09:31:43.461Z,1028.35
2018-09-29T09:32:43.488Z,1028.33
2018-09-29T09:33:43.512Z,1028.27
2018-09-29T09:34:43.536Z,1028.32
2018-09-29T09:35:43.561Z,1028.33
2018-09-29T09:36:43.590Z,1028.34
2018-09-29T09:37:43.614Z,1028.34
2018-09-29T09:38:43.641Z,1028.31
2018-09-29T09:39:43.664Z,1028.33
2018-09-29T09:40:43.686Z,1028.31
2018-09-29T09:41:43.710Z,1028.31
2018-09-29T09:42:43.741Z,1028.28
2018-09-29T09:43:43.768Z,1028.27
2018-09-29T09:44:43.788Z,1028.27
2018-09-29T09:45:43.812Z,1028.27
2018-09-29T09:46:43.842Z,1028.26
2018-09-29T09:47:43.864Z,1028.19
2018-09-29T09:48:43.889Z,1028.24
2018-09-29T09:49:43.914Z,1028.20
2018-09-29T09:50:43.943Z,1028.16
2018-09-29T09:51:43.967Z,1028.16
2018-09-29T09:52:43.989Z,1028.16
2018-09-29T09:53:44.014Z,1028.16
2018-09-29T09:54:44.041Z,1028.13
2018-09-29T09:55:44.069Z,1028.17
2018-09-29T09:56:44.090Z,1028.15
2018-09-29T09:57:44.117Z,1028.17
2018-09-29T09:58:44.141Z,1028.16
2018-09-29T09:59:44.167Z,1028.11
2018-09-29T10:00:44.191Z,1028.10
2018-09-29T10:01:44.216Z,1028.10
2018-09-29T10:02:44.241Z,1028.05
2018-09-29T10:03:44.269Z,1028.06
2018-09-29T10:04:44.292Z,1028.06
2018-09-29T10:05:44.320Z,1028.04
2018-09-29T10:06:44.343Z,1028.04
2018-09-29T10:07:44.369Z,1028.01
2018-09-29T10:08:44.397Z,1028.02
2018-09-29T10:09:44.420Z,1028.04
2018-09-29T10:10:44.444Z,1028.02
2018-09-29T10:11:44.473Z,1028.01
2018-09-29T10:12:44.496Z,1028.00
2018-09-29T10:13:44.520Z,1028.00
2018-09-29T10:14:44.544Z,1027.98
2018-09-29T10:15:44.571Z,1027.98
2018-09-29T10:16:44.594Z,1027.96
2018-09-29T10:17:44.620Z,1027.97
2018-09-29T10:18:44.649Z,1027.94
2018-09-29T10:19:44.672Z,1027.95
2018-09-29T10:20:44.697Z,1027.92
2018-09-29T10:21:44.722Z,1027.92
2018-09-29T10:22:44.748Z,1027.86
2018-09-29T10:23:44.773Z,1027.86
2018-09-29T10:24:44.801Z,1027.83
2018-09-29T10:25:44.829Z,1027.85
2018-09-29T10:26:44.851Z,1027.82
2018-09-29T10:27:44.908Z,1027.82
2018-09-29T10:28:44.903Z,1027.77
2018-09-29T10:29:44.924Z,1027.72
2018-09-29T10:30:44.949Z,1027.73
2018-09-29T10:31:44.974Z,1027.73
2018-09-29T10:32:45.005Z,1027.73
2018-09-29T10:33:45.027Z,1027.70
2018-09-29T10:34:45.051Z,1027.72
2018-09-29T10:35:45.078Z,1027.68
2018-09-29T10:36:45.104Z,1027.67
2018-09-29T10:37:45.127Z,1027.67
2018-09-29T10:38:45.156Z,1027.66
2018-09-29T10:39:45.178Z,1027.62
2018-09-29T10:40:45.202Z,1027.65
2018-09-29T10:41:45.232Z,1027.62
2018-09-29T10:42:45.255Z,1027.63
2018-09-29T10:43:45.279Z,1027.62
2018-09-29T10:44:45.305Z,1027.64
2018-09-29T10:45:45.330Z,1027.61
2018-09-29T10:46:45.359Z,1027.58
2018-09-29T10:47:45.382Z,1027.57
2018-09-29T10:48:45.405Z,1027.55
2018-09-29T10:49:45.431Z,1027.55
2018-09-29T10:50:45.456Z,1027.56
2018-09-29T10:51:45.484Z,1027.57
2018-09-29T10:52:45.517Z,1027.53
2018-09-29T10:53:45.532Z,1027.53
2018-09-29T10:54:45.559Z,1027.53
2018-09-29T10:55:45.585Z,1027.52
2018-09-29T10:56:45.608Z,1027.52
2018-09-29T10:57:45.633Z,1027.47
2018-09-29T10:58:45.660Z,1027.51
2018-09-29T10:59:45.684Z,1027.49
2018-09-29T11:00:45.713Z,1027.44
2018-09-29T11:01:45.734Z,1027.43
2018-09-29T11:02:45.812Z,1027.44
2018-09-29T11:03:45.785Z,1027.39
2018-09-29T11:04:45.809Z,1027.36
2018-09-29T11:05:45.838Z,1027.37
2018-09-29T11:06:45.861Z,1027.34
2018-09-29T11:07:45.885Z,1027.34
2018-09-29T11:08:45.910Z,1027.35
2018-09-29T11:09:45.936Z,1027.29
2018-09-29T11:10:45.965Z,1027.28
2018-09-29T11:11:45.991Z,1027.27
2018-09-29T11:12:46.012Z,1027.26
2018-09-29T11:13:46.036Z,1027.23
2018-09-29T11:14:46.064Z,1027.23
2018-09-29T11:15:46.089Z,1027.24
2018-09-29T11:16:46.115Z,1027.21
2018-09-29T11:17:46.138Z,1027.20
2018-09-29T11:18:46.163Z,1027.22
2018-09-29T11:19:46.191Z,1027.18
2018-09-29T11:20:46.256Z,1027.16
2018-09-29T11:21:46.244Z,1027.14
2018-09-29T11:22:46.264Z,1027.11
2018-09-29T11:23:46.291Z,1027.06
2018-09-29T11:24:46.314Z,1027.05
2018-09-29T11:25:46.338Z,1027.05
2018-09-29T11:26:46.366Z,1027.07
2018-09-29T11:27:46.422Z,1027.05
2018-09-29T11:28:46.418Z,1027.02
2018-09-29T11:29:46.443Z,1027.00
2018-09-29T11:30:46.468Z,1027.00
2018-09-29T11:31:46.490Z,1026.99
2018-09-29T11:32:46.514Z,1026.97
2018-09-29T11:33:46.540Z,1026.96
2018-09-29T11:34:46.568Z,1026.88
2018-09-29T11:35:46.591Z,1026.91
2018-09-29T11:36:46.616Z,1026.88
2018-09-29T11:37:46.641Z,1026.86
2018-09-29T11:38:46.667Z,1026.84
2018-09-29T11:39:46.692Z,1026.85
2018-09-29T11:40:46.718Z,1026.83
2018-09-29T11:41:46.741Z,1026.86
2018-09-29T11:42:46.771Z,1026.83
2018-09-29T11:43:46.791Z,1026.82
2018-09-29T11:44:46.858Z,1026.80
2018-09-29T11:45:46.842Z,1026.80
2018-09-29T11:46:46.868Z,1026.74
2018-09-29T11:47:46.892Z,1026.77
2018-09-29T11:48:46.918Z,1026.77
2018-09-29T11:49:46.943Z,1026.72
2018-09-29T11:50:46.969Z,1026.72
2018-09-29T11:51:46.993Z,1026.72
2018-09-29T11:52:47.016Z,1026.71
2018-09-29T11:53:47.042Z,1026.64
2018-09-29T11:54:47.069Z,1026.66
2018-09-29T11:55:47.095Z,1026.68
2018-09-29T11:56:47.121Z,1026.63
2018-09-29T11:57:47.143Z,1026.61
2018-09-29T11:58:47.164Z,1026.59
2018-09-29T11:59:47.196Z,1026.61
2018-09-29T12:00:47.220Z,1026.60
2018-09-29T12:01:47.260Z,1026.65
2018-09-29T12:02:47.269Z,1026.59
2018-09-29T12:03:47.294Z,1026.56
2018-09-29T12:04:47.318Z,1026.56
2018-09-29T12:05:47.389Z,1026.54